Terminal Aerodrome Forecast
Issued by NWS

Home | Current Version | Previous Version | Text Only | Print | Product List | Glossary On
Versions: 1 2 3 4 5 6 7 8 9 10 11 12 13 14 15 16 17 18
000
FTUS46 KSEW 190731 AAC
TAFPAE
TAF AMD
KPAE 190731Z 1908/2006 16020G28KT 5SM -RA BR BKN015 OVC040
     FM191100 17017G28KT 5SM -SHRA BKN020 OVC035
     FM191200 17015G22KT 5SM BR VCSH BKN020 OVC030
     FM192100 17015G22KT P6SM -SHRA BKN025 BKN050=

USA.gov is the U.S. government's official web portal to all federal, state and local government web resources and services.